Time;durP1;ratioP1;P1;durP2;ratioP2;P2;SDS_P1;SDS_P2;PMS_P1;PMS_P2;Temp;Humidity;BMP_temperature;BMP_pressure;BME280_temperature;BME280_humidity;BME280_pressure;Samples;Min_cycle;Max_cycle;Signal;HPM_P1;HPM_P2
2022/10/28 00:01:31;;;;;;;10.43;3.95;;;;;;;16.79;47.36;101092.88;4832477;29;20082;-73
2022/10/28 00:04:01;;;;;;;9.25;4.15;;;;;;;16.70;46.55;101090.16;4835808;29;20658;-75
2022/10/28 00:06:32;;;;;;;6.65;3.88;;;;;;;16.58;49.00;101084.78;4828493;29;20114;-72
2022/10/28 00:09:01;;;;;;;10.48;4.28;;;;;;;16.40;48.93;101081.16;4834823;29;20075;-73
2022/10/28 00:11:31;;;;;;;6.05;3.42;;;;;;;16.25;48.70;101083.56;4828306;29;20050;-72
2022/10/28 00:14:02;;;;;;;9.35;4.47;;;;;;;16.17;49.89;101082.59;4838684;29;20054;-73
2022/10/28 00:16:33;;;;;;;7.68;3.45;;;;;;;16.06;52.31;101079.88;4839088;29;20046;-73
2022/10/28 00:19:03;;;;;;;7.15;3.25;;;;;;;15.98;52.39;101074.56;4838719;29;20053;-73
2022/10/28 00:21:33;;;;;;;10.38;3.30;;;;;;;15.90;52.21;101073.59;4834183;29;20515;-73
2022/10/28 00:24:02;;;;;;;6.68;4.00;;;;;;;15.82;52.24;101070.88;4832018;29;20137;-73
2022/10/28 00:26:32;;;;;;;6.82;2.83;;;;;;;15.75;52.48;101076.00;4836934;29;20046;-72
2022/10/28 00:29:04;;;;;;;7.28;3.05;;;;;;;15.63;54.54;101071.47;4834827;29;20528;-73
2022/10/28 00:31:35;;;;;;;8.15;3.33;;;;;;;15.49;55.12;101053.88;4834112;29;20141;-76
2022/10/28 00:34:05;;;;;;;9.25;3.40;;;;;;;15.41;54.60;101055.50;4827590;29;20050;-76
2022/10/28 00:36:36;;;;;;;7.97;2.67;;;;;;;15.35;54.39;101063.25;4837086;29;20088;-74
2022/10/28 00:39:10;;;;;;;5.88;2.28;;;;;;;15.25;54.79;101062.19;4833799;29;20438;-75
2022/10/28 00:41:41;;;;;;;4.63;2.17;;;;;;;15.22;55.42;101059.56;4836443;29;20061;-75
2022/10/28 00:44:44;;;;;;;6.90;3.05;;;;;;;15.14;56.26;101062.91;4837482;29;20050;-75
2022/10/28 00:47:18;;;;;;;6.18;2.53;;;;;;;15.04;57.25;101061.88;4831766;29;20046;-76
2022/10/28 00:49:49;;;;;;;5.00;2.45;;;;;;;14.95;57.73;101069.53;4836618;29;20569;-77
2022/10/28 00:52:20;;;;;;;6.05;2.58;;;;;;;14.91;57.93;101065.13;4836859;29;20616;-78
2022/10/28 00:54:51;;;;;;;4.15;2.22;;;;;;;14.85;58.71;101056.38;4836038;29;20095;-72
2022/10/28 00:57:25;;;;;;;5.95;2.67;;;;;;;14.78;59.71;101058.84;4836881;29;20061;-73
2022/10/28 00:59:55;;;;;;;6.00;2.85;;;;;;;14.71;60.96;101070.03;4836475;29;20058;-71
2022/10/28 01:02:25;;;;;;;10.55;3.72;;;;;;;14.61;62.48;101062.03;4836329;29;20061;-71
2022/10/28 01:04:54;;;;;;;7.35;3.00;;;;;;;14.54;65.32;101064.47;4838203;29;20794;-71
2022/10/28 01:07:24;;;;;;;7.45;3.83;;;;;;;14.45;61.99;101063.47;4831734;29;20054;-71
2022/10/28 01:09:52;;;;;;;11.00;3.83;;;;;;;14.42;61.25;101062.50;4837330;29;20538;-75
2022/10/28 01:12:33;;;;;;;9.00;3.83;;;;;;;14.32;62.63;101058.88;4839531;29;20496;-74
2022/10/28 01:15:11;;;;;;;11.52;4.43;;;;;;;14.26;61.80;101061.34;4840486;29;20106;-72
2022/10/28 01:17:55;;;;;;;9.95;3.95;;;;;;;14.19;61.32;101052.53;4841536;29;20464;-72
2022/10/28 01:20:47;;;;;;;4.80;2.72;;;;;;;14.14;65.72;101051.56;4828851;29;20053;-76
2022/10/28 01:23:23;;;;;;;11.10;3.72;;;;;;;14.04;65.90;101049.63;4832521;29;20054;-76
2022/10/28 01:26:09;;;;;;;10.30;3.90;;;;;;;13.95;65.20;101049.44;4834264;29;20114;-71
2022/10/28 01:29:04;;;;;;;11.05;5.07;;;;;;;13.89;64.86;101045.00;4838910;29;20050;-73
2022/10/28 01:31:42;;;;;;;10.55;3.35;;;;;;;13.78;69.02;101043.91;4843865;29;20113;-72
2022/10/28 01:34:20;;;;;;;8.88;4.35;;;;;;;13.64;69.92;101034.94;4824333;29;20057;-72
2022/10/28 01:36:59;;;;;;;5.18;2.88;;;;;;;13.48;73.84;101045.00;4836632;29;20054;-72
2022/10/28 01:39:34;;;;;;;8.98;3.38;;;;;;;13.38;75.51;101045.66;4836546;29;20118;-72
2022/10/28 01:42:14;;;;;;;7.00;3.58;;;;;;;13.33;76.81;101049.84;4834016;29;20054;-73
2022/10/28 01:44:53;;;;;;;8.80;3.70;;;;;;;13.31;74.56;101046.31;4835810;29;20381;-75
2022/10/28 01:47:27;;;;;;;6.32;3.20;;;;;;;13.28;72.69;101056.66;4837091;29;20061;-75
2022/10/28 01:50:01;;;;;;;10.77;3.85;;;;;;;13.24;71.01;101059.97;4835760;29;20050;-75
2022/10/28 01:52:32;;;;;;;9.60;3.83;;;;;;;13.20;70.68;101059.06;4840356;29;20053;-75
2022/10/28 01:55:07;;;;;;;11.00;4.50;;;;;;;13.15;70.25;101056.34;4840631;29;20468;-75
2022/10/28 01:57:39;;;;;;;9.15;4.75;;;;;;;13.12;70.77;101071.84;4837503;29;20062;-75
2022/10/28 02:00:08;;;;;;;9.88;4.93;;;;;;;13.06;71.15;101066.53;4833725;29;20057;-75
2022/10/28 02:02:40;;;;;;;17.50;5.60;;;;;;;13.02;70.63;101058.63;4838528;29;20455;-75
2022/10/28 02:05:39;;;;;;;12.10;5.27;;;;;;;12.97;70.95;101066.28;4829089;29;20050;-75
2022/10/28 02:08:20;;;;;;;14.85;5.25;;;;;;;12.92;71.30;101073.09;4834465;29;20281;-76
2022/10/28 02:11:00;;;;;;;12.07;5.13;;;;;;;12.88;71.72;101072.13;4831613;29;20649;-76
2022/10/28 02:13:40;;;;;;;11.98;5.75;;;;;;;12.81;72.89;101071.94;5007164;23;20064;-73
2022/10/28 02:16:19;;;;;;;13.90;5.18;;;;;;;12.68;74.21;101073.34;4858759;29;20068;-73
2022/10/28 02:18:59;;;;;;;11.10;4.85;;;;;;;12.55;78.26;101074.72;4846469;29;20278;-72
2022/10/28 02:21:37;;;;;;;9.43;4.57;;;;;;;12.47;80.24;101073.66;4846854;29;20077;-74
2022/10/28 02:24:18;;;;;;;11.55;4.72;;;;;;;12.43;80.97;101077.00;4847421;29;20053;-77
2022/10/28 02:26:56;;;;;;;15.45;4.97;;;;;;;12.40;80.26;101089.91;4847587;29;20062;-72
2022/10/28 02:29:31;;;;;;;11.32;4.68;;;;;;;12.35;79.83;101095.84;4853896;29;20109;-73
2022/10/28 02:32:04;;;;;;;11.82;4.40;;;;;;;12.33;78.76;101097.50;4853423;29;20061;-72
2022/10/28 02:34:34;;;;;;;;;;;;;;;12.30;77.81;101097.44;4853707;29;20057;-75
2022/10/28 02:37:09;;;;;;;10.57;5.20;;;;;;;12.25;77.91;101083.44;4852642;29;19965;-73
2022/10/28 02:39:41;;;;;;;13.52;4.57;;;;;;;12.20;79.42;101090.22;4849460;29;20113;-72
2022/10/28 02:42:15;;;;;;;21.35;5.40;;;;;;;12.15;81.52;101091.81;4852540;29;20062;-73
2022/10/28 02:44:49;;;;;;;14.00;5.13;;;;;;;12.08;82.01;101085.56;4850581;29;20076;-74
2022/10/28 02:47:21;;;;;;;17.80;5.82;;;;;;;12.04;81.89;101090.63;4854970;29;20148;-75
2022/10/28 02:50:04;;;;;;;16.92;6.60;;;;;;;11.99;80.11;101087.88;4851593;29;20041;-74
2022/10/28 02:52:35;;;;;;;17.10;6.00;;;;;;;11.95;80.59;101089.50;4849037;29;20050;-73
2022/10/28 02:55:06;;;;;;;19.33;5.65;;;;;;;11.89;80.40;101089.34;4850629;29;20049;-73
2022/10/28 02:57:39;;;;;;;15.75;6.25;;;;;;;11.79;80.46;101092.44;4841293;29;20058;-73
2022/10/28 03:00:11;;;;;;;18.77;6.53;;;;;;;11.64;81.66;101090.28;4852984;29;20049;-73
2022/10/28 03:02:39;;;;;;;20.83;5.97;;;;;;;11.59;83.00;101093.56;4849752;29;20101;-72
2022/10/28 03:05:10;;;;;;;14.55;5.72;;;;;;;11.56;82.72;101085.69;4850491;29;20576;-72
2022/10/28 03:07:39;;;;;;;15.48;6.10;;;;;;;11.53;82.77;101087.34;4849642;29;20252;-73
2022/10/28 03:10:08;;;;;;;16.88;6.57;;;;;;;11.51;82.47;101091.59;4851824;29;20046;-73
2022/10/28 03:12:37;;;;;;;21.38;7.47;;;;;;;11.43;81.92;101095.69;4854464;29;20056;-73
2022/10/28 03:15:06;;;;;;;20.88;7.65;;;;;;;11.33;82.44;101091.91;4858612;29;20060;-72
2022/10/28 03:17:34;;;;;;;18.48;6.60;;;;;;;11.27;85.66;101102.09;4873630;29;20049;-73
2022/10/28 03:20:03;;;;;;;16.65;5.68;;;;;;;11.21;87.39;101106.19;4870538;29;20052;-73
2022/10/28 03:22:33;;;;;;;23.08;6.47;;;;;;;11.18;86.92;101106.06;4870635;29;20060;-73
2022/10/28 03:25:02;;;;;;;15.35;7.45;;;;;;;11.09;85.57;101107.56;4870991;29;20049;-74
2022/10/28 03:27:31;;;;;;;13.55;5.40;;;;;;;10.95;84.53;101106.22;4867800;29;20053;-74
2022/10/28 03:29:59;;;;;;;12.45;4.72;;;;;;;10.85;84.96;101099.84;4867305;29;20620;-76
2022/10/28 03:32:28;;;;;;;18.67;4.82;;;;;;;10.82;85.26;101102.31;4873007;29;20581;-75
2022/10/28 03:34:56;;;;;;;11.57;4.78;;;;;;;10.83;85.11;101095.44;4869465;29;20048;-75
2022/10/28 03:37:25;;;;;;;14.93;5.75;;;;;;;10.84;84.97;101089.44;4869950;29;20049;-74
2022/10/28 03:39:55;;;;;;;12.55;5.18;;;;;;;10.85;85.60;101083.44;4872011;29;20049;-75
2022/10/28 03:42:24;;;;;;;22.08;6.65;;;;;;;10.83;85.22;101091.13;4872260;29;20061;-74
2022/10/28 03:44:52;;;;;;;17.70;5.78;;;;;;;10.84;85.19;101098.09;4869443;29;20057;-75
2022/10/28 03:47:21;;;;;;;15.32;6.13;;;;;;;10.83;84.89;101100.63;4867238;29;20058;-75
2022/10/28 03:49:50;;;;;;;13.45;5.22;;;;;;;10.81;85.17;101091.91;4870835;29;20053;-74
2022/10/28 03:52:18;;;;;;;11.38;4.57;;;;;;;10.79;84.71;101091.88;4867150;29;20070;-74
2022/10/28 03:54:47;;;;;;;12.02;5.43;;;;;;;10.77;85.03;101098.72;4875582;29;20056;-75
2022/10/28 03:57:17;;;;;;;11.85;5.53;;;;;;;10.75;84.89;101104.66;4869633;29;20491;-76
2022/10/28 03:59:45;;;;;;;11.07;4.85;;;;;;;10.72;84.82;101104.53;4872580;29;20632;-75
2022/10/28 04:02:14;;;;;;;13.65;5.00;;;;;;;10.62;85.80;101103.34;4870428;29;20415;-75
2022/10/28 04:04:42;;;;;;;13.35;4.32;;;;;;;10.56;86.50;101093.69;4875445;29;20053;-75
2022/10/28 04:07:11;;;;;;;14.10;4.72;;;;;;;10.56;86.82;101103.13;4865139;29;20061;-74
2022/10/28 04:09:39;;;;;;;11.73;5.70;;;;;;;10.56;87.04;101097.94;4872823;29;20068;-74
2022/10/28 04:12:10;;;;;;;15.25;4.68;;;;;;;10.55;87.08;101099.66;4867399;29;20050;-72
2022/10/28 04:14:41;;;;;;;12.45;4.82;;;;;;;10.50;87.88;101095.16;4876938;29;20506;-72
2022/10/28 04:17:09;;;;;;;10.77;4.60;;;;;;;10.50;88.08;101097.75;4873077;29;20053;-72
2022/10/28 04:19:38;;;;;;;9.90;4.22;;;;;;;10.46;87.77;101104.50;4874296;29;20052;-73
2022/10/28 04:22:06;;;;;;;15.23;5.13;;;;;;;10.43;87.28;101101.84;4872581;29;20060;-71
2022/10/28 04:24:35;;;;;;;11.65;5.10;;;;;;;10.40;87.57;101092.25;4872129;29;20118;-71
2022/10/28 04:27:03;;;;;;;13.32;4.68;;;;;;;10.41;87.99;101094.00;4870940;29;20052;-72
2022/10/28 04:29:33;;;;;;;13.52;4.88;;;;;;;10.42;87.76;101102.63;4870201;29;20455;-72
2022/10/28 04:32:03;;;;;;;16.83;6.00;;;;;;;10.34;86.92;101106.69;4871085;29;20480;-70
2022/10/28 04:34:31;;;;;;;12.63;5.35;;;;;;;10.26;87.87;101104.66;4871696;29;20112;-72
2022/10/28 04:37:00;;;;;;;13.18;4.65;;;;;;;10.26;88.64;101109.84;4869356;29;20606;-73
2022/10/28 04:39:28;;;;;;;11.60;5.07;;;;;;;10.26;88.09;101094.31;4873653;29;20061;-72
2022/10/28 04:41:57;;;;;;;12.35;5.15;;;;;;;10.24;88.17;101101.13;4868574;29;20084;-72
2022/10/28 04:44:26;;;;;;;10.50;4.35;;;;;;;10.23;88.92;101094.19;4873636;29;20134;-73
2022/10/28 04:46:56;;;;;;;13.07;4.88;;;;;;;10.25;88.08;101102.00;4878915;29;20342;-73
2022/10/28 04:49:27;;;;;;;19.08;6.47;;;;;;;10.24;88.10;101100.25;4868860;29;20156;-72
2022/10/28 04:51:55;;;;;;;15.30;5.60;;;;;;;10.22;88.43;101100.19;4869307;29;20109;-72
2022/10/28 04:54:24;;;;;;;13.25;4.60;;;;;;;10.22;88.62;101107.09;4871738;29;20053;-72
2022/10/28 04:56:52;;;;;;;19.17;5.25;;;;;;;10.19;88.82;101096.59;4875134;29;20085;-73
2022/10/28 04:59:21;;;;;;;9.65;4.53;;;;;;;10.17;88.40;101099.16;4871223;29;20053;-73
2022/10/28 05:01:49;;;;;;;13.70;5.68;;;;;;;10.16;88.08;101107.72;4864528;29;20060;-72
2022/10/28 05:04:18;;;;;;;16.55;5.90;;;;;;;10.14;88.59;101116.25;4869912;29;20048;-72
2022/10/28 05:06:48;;;;;;;15.73;6.47;;;;;;;10.09;88.80;101121.25;4869472;29;20064;-72
2022/10/28 05:09:17;;;;;;;15.38;5.80;;;;;;;10.10;88.99;101117.88;4874765;29;20053;-72
2022/10/28 05:11:46;;;;;;;17.52;6.50;;;;;;;10.06;87.42;101131.50;4876685;29;20063;-72
2022/10/28 05:14:14;;;;;;;12.23;5.78;;;;;;;10.04;88.21;101127.97;4883501;29;20077;-73
2022/10/28 05:16:43;;;;;;;15.13;5.32;;;;;;;10.00;88.39;101115.75;4874625;29;20053;-71
2022/10/28 05:19:11;;;;;;;11.40;5.25;;;;;;;9.94;89.27;101111.22;4870960;29;20061;-72
2022/10/28 05:21:40;;;;;;;10.93;4.57;;;;;;;9.90;91.87;101129.16;4875381;29;20378;-73
2022/10/28 05:24:10;;;;;;;10.57;4.22;;;;;;;9.80;92.25;101131.38;4870904;29;20050;-72
2022/10/28 05:26:39;;;;;;;10.57;4.68;;;;;;;9.73;92.04;101116.44;4871290;29;20048;-71
2022/10/28 05:29:08;;;;;;;11.60;4.60;;;;;;;9.73;93.05;101116.44;4876554;29;20835;-72
2022/10/28 05:31:36;;;;;;;12.75;4.38;;;;;;;9.74;90.85;101123.38;4872526;29;20487;-72
2022/10/28 05:34:05;;;;;;;12.40;5.22;;;;;;;9.72;91.79;101114.69;4871471;29;20049;-71
2022/10/28 05:36:33;;;;;;;16.33;4.75;;;;;;;9.71;91.70;101117.22;4876823;29;20045;-72
2022/10/28 05:39:02;;;;;;;13.13;5.15;;;;;;;9.68;91.22;101122.25;4869485;29;20727;-73
2022/10/28 05:41:32;;;;;;;15.45;4.57;;;;;;;9.56;92.21;101133.00;4875602;29;20080;-71
2022/10/28 05:44:01;;;;;;;12.77;5.25;;;;;;;9.48;92.79;101139.56;4874749;29;20064;-72
2022/10/28 05:46:29;;;;;;;12.70;5.80;;;;;;;9.37;94.14;101131.41;4874963;29;20133;-73
2022/10/28 05:48:58;;;;;;;12.82;5.10;;;;;;;9.24;94.11;101109.34;4873300;29;20060;-73
2022/10/28 05:51:27;;;;;;;12.35;5.43;;;;;;;9.29;93.96;101131.06;4875112;29;20083;-72
2022/10/28 05:53:55;;;;;;;13.77;5.43;;;;;;;9.27;94.34;101124.09;4874302;29;20125;-73
2022/10/28 05:56:24;;;;;;;11.38;6.03;;;;;;;9.26;93.24;101128.38;4873690;29;20061;-72
2022/10/28 05:58:54;;;;;;;18.10;7.55;;;;;;;9.25;94.32;101125.72;4875351;29;20064;-73
2022/10/28 06:01:23;;;;;;;12.88;5.47;;;;;;;9.26;93.43;101128.38;4871923;29;20444;-72
2022/10/28 06:03:51;;;;;;;15.85;6.03;;;;;;;9.28;92.55;101126.75;4868708;29;20059;-72
2022/10/28 06:06:20;;;;;;;17.30;5.65;;;;;;;9.30;92.36;101130.25;4864170;29;20050;-72
2022/10/28 06:08:48;;;;;;;16.90;6.10;;;;;;;9.27;92.27;101109.47;4869035;29;20057;-72
2022/10/28 06:11:17;;;;;;;11.93;5.65;;;;;;;9.30;92.55;101132.84;4869631;29;20564;-72
2022/10/28 06:13:45;;;;;;;9.90;5.05;;;;;;;9.31;92.33;101144.94;4867063;29;20061;-72
2022/10/28 06:16:16;;;;;;;14.60;5.75;;;;;;;9.30;91.22;101156.09;4869539;28;20052;-73
2022/10/28 06:18:44;;;;;;;14.20;6.25;;;;;;;9.30;91.62;101165.50;4867178;29;20594;-75
2022/10/28 06:21:13;;;;;;;22.20;7.07;;;;;;;9.29;92.00;101159.47;4870463;29;20618;-75
2022/10/28 06:23:48;;;;;;;12.57;5.30;;;;;;;9.30;92.21;101161.25;4873903;29;20517;-74
2022/10/28 06:26:17;;;;;;;15.93;6.50;;;;;;;9.32;92.53;101169.94;4874681;29;20594;-74
2022/10/28 06:28:48;;;;;;;15.73;5.78;;;;;;;9.33;91.43;101176.00;4865744;29;20509;-74
2022/10/28 06:31:19;;;;;;;12.07;6.15;;;;;;;9.30;92.19;101176.75;4868338;29;20161;-75
2022/10/28 06:33:47;;;;;;;15.10;6.47;;;;;;;9.27;92.82;101178.31;4858727;29;20108;-75
2022/10/28 06:36:16;;;;;;;17.77;5.80;;;;;;;9.16;94.08;101157.19;4869946;29;20075;-74
2022/10/28 06:38:44;;;;;;;10.27;5.03;;;;;;;9.22;94.50;101175.53;4868996;29;20419;-74
2022/10/28 06:41:13;;;;;;;13.52;6.30;;;;;;;9.21;95.24;101176.38;4870863;29;20162;-73
2022/10/28 06:43:41;;;;;;;14.45;5.35;;;;;;;9.23;94.64;101172.13;4866687;29;20668;-75
2022/10/28 06:46:10;;;;;;;10.60;6.38;;;;;;;9.20;94.73;101161.69;4871748;29;20059;-73
2022/10/28 06:48:40;;;;;;;15.75;6.45;;;;;;;9.18;95.22;101169.34;4869504;29;20060;-73
2022/10/28 06:51:08;;;;;;;15.52;5.65;;;;;;;9.18;93.97;101186.53;4874675;29;20060;-73
2022/10/28 06:53:37;;;;;;;13.93;5.82;;;;;;;9.17;93.79;101185.66;4873491;29;20547;-73
2022/10/28 06:56:06;;;;;;;12.38;5.72;;;;;;;9.15;94.00;101170.94;4869496;29;20084;-73
2022/10/28 06:58:35;;;;;;;15.10;5.65;;;;;;;9.11;94.64;101166.47;4872576;29;20789;-73
2022/10/28 07:01:05;;;;;;;16.30;4.88;;;;;;;9.10;95.05;101162.13;4871599;29;20061;-72
2022/10/28 07:03:34;;;;;;;14.57;5.43;;;;;;;9.10;93.61;101156.97;4868634;29;20113;-73
2022/10/28 07:06:04;;;;;;;13.00;5.57;;;;;;;9.13;94.36;101157.06;4872130;29;20681;-73
2022/10/28 07:08:33;;;;;;;14.98;5.60;;;;;;;9.16;93.89;101162.34;4876020;29;20049;-73
2022/10/28 07:11:02;;;;;;;12.68;5.72;;;;;;;9.18;93.49;101171.06;4871952;29;20084;-73
2022/10/28 07:13:31;;;;;;;14.60;6.10;;;;;;;9.16;92.81;101157.19;4872034;29;20170;-73
2022/10/28 07:16:00;;;;;;;14.52;5.43;;;;;;;9.12;93.58;101157.91;4869251;29;20061;-73
2022/10/28 07:18:30;;;;;;;10.23;5.22;;;;;;;9.10;95.05;101151.81;4872960;29;20053;-73
2022/10/28 07:21:00;;;;;;;9.50;4.55;;;;;;;9.10;96.84;101150.09;4872210;29;20108;-73
2022/10/28 07:23:31;;;;;;;8.82;5.70;;;;;;;9.09;97.72;101150.88;4870545;29;20041;-73
2022/10/28 07:26:00;;;;;;;15.73;5.20;;;;;;;9.08;96.75;101148.28;4875084;29;20153;-73
2022/10/28 07:28:29;;;;;;;13.68;4.68;;;;;;;9.08;96.80;101143.09;4873353;29;20045;-72
2022/10/28 07:31:01;;;;;;;11.95;4.82;;;;;;;9.10;95.58;101141.47;4872774;29;20618;-73
2022/10/28 07:33:30;;;;;;;12.85;5.57;;;;;;;9.13;95.57;101131.25;4874547;29;20132;-73
2022/10/28 07:35:59;;;;;;;12.52;5.55;;;;;;;9.16;96.04;101121.97;4872126;29;20100;-73
2022/10/28 07:38:29;;;;;;;20.05;6.65;;;;;;;9.21;95.80;101124.72;4873514;29;20101;-73
2022/10/28 07:40:58;;;;;;;11.35;6.05;;;;;;;9.21;94.32;101114.41;4875076;29;20119;-73
2022/10/28 07:43:26;;;;;;;19.52;5.38;;;;;;;9.20;94.41;101107.44;4871374;29;20053;-73
2022/10/28 07:45:57;;;;;;;14.60;6.18;;;;;;;9.19;94.62;101108.28;4867820;29;20503;-73
2022/10/28 07:48:26;;;;;;;15.65;5.35;;;;;;;9.20;95.47;101103.16;4867430;29;20057;-73
2022/10/28 07:50:54;;;;;;;14.05;6.35;;;;;;;9.21;95.23;101097.19;4870101;29;20064;-73
2022/10/28 07:53:23;;;;;;;17.38;5.88;;;;;;;9.20;96.40;101091.97;4869953;29;20053;-73
2022/10/28 07:55:58;;;;;;;12.60;5.18;;;;;;;9.17;96.60;101092.72;4871130;29;20049;-73
2022/10/28 07:58:27;;;;;;;10.60;5.55;;;;;;;9.19;96.69;101101.41;4867779;29;20049;-73
2022/10/28 08:00:55;;;;;;;11.82;5.10;;;;;;;9.22;96.58;101110.97;4864583;29;20104;-73
2022/10/28 08:03:25;;;;;;;11.48;5.20;;;;;;;9.21;95.08;101128.19;4869824;29;20769;-73
2022/10/28 08:06:01;;;;;;;11.13;5.45;;;;;;;9.19;94.97;101121.19;4870354;29;20057;-73
2022/10/28 08:08:30;;;;;;;13.32;5.10;;;;;;;9.18;94.92;101130.63;4873089;29;20189;-73
2022/10/28 08:11:00;;;;;;;10.00;5.50;;;;;;;9.20;95.08;101128.97;4868270;29;20057;-73
2022/10/28 08:13:28;;;;;;;13.77;5.55;;;;;;;9.26;95.12;101132.66;4869629;29;20049;-73
2022/10/28 08:15:57;;;;;;;13.05;6.43;;;;;;;9.22;93.66;101136.81;4875461;29;20064;-73
2022/10/28 08:18:25;;;;;;;12.90;5.28;;;;;;;9.31;93.42;101147.50;4870127;29;20049;-73
2022/10/28 08:20:54;;;;;;;17.40;6.85;;;;;;;9.34;94.21;101137.28;4863020;29;20139;-73
2022/10/28 08:23:23;;;;;;;15.90;5.93;;;;;;;9.37;93.76;101140.03;4862573;29;20045;-73
2022/10/28 08:25:52;;;;;;;10.02;6.00;;;;;;;9.39;92.89;101137.47;4881681;29;20060;-74
2022/10/28 08:28:22;;;;;;;12.15;4.97;;;;;;;9.43;93.99;101121.28;4871613;29;20053;-74
2022/10/28 08:30:51;;;;;;;16.20;5.13;;;;;;;9.47;94.17;101119.72;4870521;29;20065;-74
2022/10/28 08:33:20;;;;;;;14.80;5.10;;;;;;;9.46;95.30;101105.03;4870102;29;20503;-74
2022/10/28 08:35:51;;;;;;;11.55;6.07;;;;;;;9.43;95.41;101113.53;4873913;29;20061;-74
2022/10/28 08:38:20;;;;;;;11.82;5.22;;;;;;;9.41;95.68;101129.00;4871056;29;20472;-74
2022/10/28 08:41:09;;;;;;;15.63;5.80;;;;;;;9.28;95.19;101110.34;4872997;29;20051;-74
2022/10/28 08:44:09;;;;;;;11.88;5.50;;;;;;;9.34;95.29;101114.06;4869179;29;20057;-74
2022/10/28 08:46:56;;;;;;;12.32;5.57;;;;;;;9.35;95.34;101131.31;4870027;29;20434;-74
2022/10/28 08:49:25;;;;;;;11.43;4.93;;;;;;;9.33;95.61;101108.84;4870343;29;20057;-74
2022/10/28 08:51:59;;;;;;;9.13;5.10;;;;;;;9.31;96.67;101113.94;4867458;29;20121;-73
2022/10/28 08:54:36;;;;;;;18.25;5.85;;;;;;;9.32;95.81;101126.03;4867598;29;20061;-73
2022/10/28 08:57:07;;;;;;;18.73;6.50;;;;;;;9.35;96.41;101128.75;4870607;29;20052;-73
2022/10/28 08:59:41;;;;;;;11.02;5.03;;;;;;;9.35;95.52;101117.53;4870590;29;20542;-73
2022/10/28 09:02:21;;;;;;;12.00;5.63;;;;;;;9.35;95.37;101126.16;4868167;29;20057;-73
2022/10/28 09:04:52;;;;;;;13.40;6.07;;;;;;;9.37;95.49;101136.56;4871953;29;20464;-73
2022/10/28 09:07:24;;;;;;;13.45;5.40;;;;;;;9.40;94.95;101153.03;4873009;29;20053;-73
2022/10/28 09:09:54;;;;;;;12.50;5.22;;;;;;;9.42;94.96;101161.75;4867362;29;20053;-73
2022/10/28 09:12:36;;;;;;;13.75;5.30;;;;;;;9.47;93.87;101171.38;4870234;29;20057;-73
2022/10/28 09:15:22;;;;;;;12.75;6.25;;;;;;;9.53;93.95;101162.19;4867619;29;20464;-73
2022/10/28 09:17:55;;;;;;;11.63;5.32;;;;;;;9.54;96.08;101145.84;4871228;29;20047;-73
2022/10/28 09:20:33;;;;;;;10.13;5.03;;;;;;;9.54;96.89;101127.75;4869608;29;20430;-75
2022/10/28 09:23:10;;;;;;;14.50;6.25;;;;;;;9.54;97.32;101126.91;4865993;29;20546;-73
2022/10/28 09:25:49;;;;;;;12.50;5.72;;;;;;;9.56;97.42;101133.00;4870041;29;20439;-73
2022/10/28 09:28:31;;;;;;;16.17;6.45;;;;;;;9.58;95.67;101157.19;4870756;29;20127;-74
2022/10/28 09:31:09;;;;;;;15.88;5.43;;;;;;;9.59;94.90;101131.41;4873936;29;20064;-72
2022/10/28 09:33:51;;;;;;;14.82;5.78;;;;;;;9.60;95.27;101137.47;4874800;29;20053;-73
2022/10/28 09:36:25;;;;;;;12.13;5.20;;;;;;;9.60;95.22;101143.53;4872249;29;20125;-72
2022/10/28 09:38:56;;;;;;;11.45;5.22;;;;;;;9.62;95.67;101133.22;4872236;29;20312;-73
2022/10/28 09:41:28;;;;;;;8.80;5.38;;;;;;;9.62;96.22;101122.88;4870352;29;20064;-73
2022/10/28 09:44:04;;;;;;;12.57;5.93;;;;;;;9.61;96.91;101116.84;4874507;29;20053;-74
2022/10/28 09:46:35;;;;;;;15.35;6.03;;;;;;;9.59;98.00;101110.72;4875303;29;20296;-73
2022/10/28 09:49:06;;;;;;;15.27;6.25;;;;;;;9.52;97.34;101101.00;4874499;29;20064;-73
2022/10/28 09:51:46;;;;;;;19.02;7.57;;;;;;;9.62;96.82;101117.72;4872488;29;20053;-73
2022/10/28 09:54:16;;;;;;;13.30;6.13;;;;;;;9.65;96.04;101125.63;4874051;29;20055;-74
2022/10/28 09:56:45;;;;;;;9.98;5.13;;;;;;;9.64;95.29;101118.66;4871940;29;20054;-73
2022/10/28 09:59:16;;;;;;;10.75;6.05;;;;;;;9.64;94.85;101121.25;4872887;29;20053;-72
2022/10/28 10:01:46;;;;;;;13.20;5.45;;;;;;;9.61;96.44;101121.13;4878132;29;20057;-74
2022/10/28 10:04:20;;;;;;;12.63;6.57;;;;;;;9.55;97.20;101124.38;4875247;29;20049;-75
2022/10/28 10:06:52;;;;;;;11.10;6.15;;;;;;;9.50;96.80;101112.09;4871534;29;20056;-74
2022/10/28 10:09:25;;;;;;;13.73;6.65;;;;;;;9.44;99.83;101100.69;4873262;29;20064;-74
2022/10/28 10:11:55;;;;;;;;;;;;;;;9.39;100.00;101099.66;4874251;29;20057;-74
2022/10/28 10:14:30;;;;;;;10.63;5.15;;;;;;;9.38;100.00;101092.69;4874028;29;19976;-73
2022/10/28 10:17:06;;;;;;;13.25;5.88;;;;;;;9.41;99.54;101095.44;4852853;29;20049;-74
2022/10/28 10:19:59;;;;;;;14.73;6.18;;;;;;;9.41;99.39;101092.84;4851624;29;20062;-73
2022/10/28 10:22:32;;;;;;;13.88;5.75;;;;;;;9.42;98.47;101120.41;4849771;29;20049;-74
2022/10/28 10:24:59;;;;;;;;;;;;;;;9.45;97.22;101114.50;4853805;29;20057;-74
2022/10/28 10:27:29;;;;;;;13.15;6.05;;;;;;;9.37;97.16;101098.69;4851804;29;19989;-74
2022/10/28 10:29:59;;;;;;;11.65;5.22;;;;;;;9.52;97.57;101115.63;4849171;29;20749;-74
2022/10/28 10:32:32;;;;;;;11.35;5.45;;;;;;;9.53;96.97;101114.78;4850334;29;20053;-73
2022/10/28 10:35:05;;;;;;;;;;;;;;;9.55;96.32;101115.72;4855046;29;20045;-74
2022/10/28 10:37:36;;;;;;;8.50;4.82;;;;;;;9.57;95.95;101120.13;4852805;29;20669;-74
2022/10/28 10:40:20;;;;;;;9.20;4.50;;;;;;;9.62;95.82;101122.88;4848251;29;20069;-74
2022/10/28 10:42:49;;;;;;;10.70;4.68;;;;;;;9.63;95.94;101117.78;4852552;29;20060;-74
2022/10/28 10:45:22;;;;;;;12.75;5.22;;;;;;;9.61;95.62;101105.63;4853149;29;21060;-74
2022/10/28 10:48:17;;;;;;;11.07;4.82;;;;;;;9.66;95.77;101111.84;4848376;29;20050;-73
2022/10/28 10:50:48;;;;;;;8.80;4.75;;;;;;;9.66;95.77;101119.59;4851018;29;20144;-72
2022/10/28 10:53:24;;;;;;;12.32;4.35;;;;;;;9.66;94.58;101114.44;4852041;29;20054;-74
2022/10/28 10:55:56;;;;;;;9.98;4.65;;;;;;;9.63;94.19;101129.84;4858179;29;20496;-73
2022/10/28 10:58:27;;;;;;;9.82;4.60;;;;;;;9.59;94.17;101134.00;4852725;29;20651;-72
2022/10/28 11:00:59;;;;;;;7.95;4.28;;;;;;;9.57;94.16;101124.41;4854646;29;21092;-73
2022/10/28 11:03:33;;;;;;;10.98;5.13;;;;;;;9.54;93.95;101116.56;4847822;29;20417;-73
2022/10/28 11:06:03;;;;;;;9.55;5.07;;;;;;;9.50;94.29;101117.25;4853505;29;21256;-73
2022/10/28 11:08:38;;;;;;;7.07;4.40;;;;;;;9.43;94.91;101127.31;4855563;29;20095;-73
2022/10/28 11:11:09;;;;;;;6.93;3.72;;;;;;;9.41;94.08;101130.69;4854495;29;20061;-73
2022/10/28 11:13:38;;;;;;;7.88;4.28;;;;;;;9.35;96.39;101121.00;4863444;29;20751;-73
2022/10/28 11:16:15;;;;;;;8.77;4.47;;;;;;;9.30;96.33;101119.94;4558247;29;9279927;-74
2022/10/28 11:18:47;;;;;;;9.25;4.30;;;;;;;9.29;96.99;101115.56;4872308;29;20113;-74
2022/10/28 11:21:41;;;;;;;9.23;4.30;;;;;;;9.30;96.50;101104.44;4866722;29;20452;-73
2022/10/28 11:24:32;;;;;;;13.38;4.95;;;;;;;9.30;95.86;101119.94;4872995;29;20514;-74
2022/10/28 11:27:07;;;;;;;9.32;4.90;;;;;;;9.31;95.85;101121.69;4876614;29;20511;-74
2022/10/28 11:29:36;;;;;;;8.10;4.32;;;;;;;9.33;96.41;101126.91;4869881;29;20571;-74
2022/10/28 11:32:31;;;;;;;8.00;4.00;;;;;;;9.30;96.53;101122.53;4870230;29;20473;-74
2022/10/28 11:35:26;;;;;;;7.65;4.03;;;;;;;9.23;97.75;101121.38;4871883;29;20049;-74
2022/10/28 11:38:04;;;;;;;9.45;5.15;;;;;;;9.18;100.00;101124.56;4872210;29;20064;-74
2022/10/28 11:40:45;;;;;;;10.65;4.68;;;;;;;9.18;100.00;101129.75;4870633;29;20598;-74
2022/10/28 11:43:25;;;;;;;8.55;3.95;;;;;;;9.18;99.70;101112.53;4870947;29;20056;-74
2022/10/28 11:46:04;;;;;;;7.80;4.25;;;;;;;9.21;100.00;101119.56;4863554;29;20121;-73
2022/10/28 11:48:54;;;;;;;9.48;4.55;;;;;;;9.20;99.93;101112.63;4872716;29;20138;-73